createdAt,value
2022-09-06T00:00:18.686Z,99849.50
2022-09-06T00:02:46.060Z,99801.84
2022-09-06T00:05:13.590Z,99851.34
2022-09-06T00:07:40.767Z,99832.78
2022-09-06T00:10:08.187Z,99794.94
2022-09-06T00:12:35.263Z,99843.06
2022-09-06T00:15:02.774Z,99811.47
2022-09-06T00:17:29.560Z,99792.09
2022-09-06T00:19:56.235Z,99792.91
2022-09-06T00:22:22.927Z,99811.72
2022-09-06T00:24:49.591Z,99799.38
2022-09-06T00:27:16.221Z,99814.00
2022-09-06T00:29:42.953Z,99784.22
2022-09-06T00:32:09.704Z,99810.06
2022-09-06T00:34:36.359Z,99812.84
2022-09-06T00:37:03.134Z,99820.34
2022-09-06T00:39:29.848Z,99823.25
2022-09-06T00:41:56.559Z,99785.56
2022-09-06T00:44:23.531Z,99834.16
2022-09-06T00:46:53.020Z,99831.97
2022-09-06T00:49:25.304Z,99830.00
2022-09-06T00:51:55.375Z,99801.69
2022-09-06T00:54:22.589Z,99810.41
2022-09-06T00:56:50.247Z,99789.94
2022-09-06T00:59:17.623Z,99799.00
2022-09-06T01:01:44.417Z,99835.16
2022-09-06T01:04:11.349Z,99821.19
2022-09-06T01:07:02.438Z,99843.28
2022-09-06T01:10:13.931Z,99846.78
2022-09-06T01:13:08.543Z,99845.13
2022-09-06T01:15:46.112Z,99839.88
2022-09-06T01:18:31.077Z,99843.88
2022-09-06T01:21:15.637Z,99815.34
2022-09-06T01:23:51.216Z,99868.75
2022-09-06T01:26:55.203Z,99876.84
2022-09-06T01:29:27.632Z,99874.59
2022-09-06T01:32:05.459Z,99882.03
2022-09-06T01:34:39.574Z,99869.06
2022-09-06T01:37:12.563Z,99874.25
2022-09-06T01:39:41.107Z,99868.31
2022-09-06T01:42:19.558Z,99842.56
2022-09-06T01:44:56.321Z,99857.59
2022-09-06T01:47:30.152Z,99885.69
2022-09-06T01:50:29.587Z,99873.63
2022-09-06T01:52:59.116Z,99912.31
2022-09-06T01:55:49.123Z,99964.44
2022-09-06T01:58:35.256Z,99958.41
2022-09-06T02:01:14.275Z,99988.66
2022-09-06T02:03:57.863Z,99995.75
2022-09-06T02:06:30.892Z,99992.59
2022-09-06T02:09:08.079Z,99978.88
2022-09-06T02:11:59.630Z,99990.88
2022-09-06T02:14:32.596Z,99990.78
2022-09-06T02:17:01.624Z,99990.09
2022-09-06T02:19:35.978Z,100005.78
2022-09-06T02:22:07.718Z,99968.03
2022-09-06T02:24:37.427Z,99979.84
2022-09-06T02:27:04.393Z,99976.66
2022-09-06T02:29:31.257Z,99958.81
2022-09-06T02:32:01.406Z,99981.00
2022-09-06T02:34:29.037Z,99985.09
2022-09-06T02:36:56.271Z,100001.66
2022-09-06T02:39:23.024Z,99992.75
2022-09-06T02:41:49.706Z,99976.06
2022-09-06T02:44:16.321Z,99946.78
2022-09-06T02:46:42.995Z,99948.88
2022-09-06T02:49:09.652Z,99960.44
2022-09-06T02:51:39.501Z,99951.47
2022-09-06T02:54:06.632Z,99936.75
2022-09-06T02:56:33.775Z,99932.22
2022-09-06T02:59:00.872Z,99932.91
2022-09-06T03:01:27.634Z,99959.75
2022-09-06T03:03:54.366Z,99945.31
2022-09-06T03:06:20.993Z,99928.75
2022-09-06T03:08:47.674Z,99969.03
2022-09-06T03:11:14.365Z,99986.91
2022-09-06T03:13:53.124Z,99995.88
2022-09-06T03:16:20.445Z,99994.47
2022-09-06T03:18:47.103Z,99945.22
2022-09-06T03:21:14.535Z,99949.09
2022-09-06T03:23:41.222Z,99867.84
2022-09-06T03:26:30.067Z,99867.16
2022-09-06T03:28:56.716Z,99863.66
2022-09-06T03:31:37.884Z,99912.19
2022-09-06T03:34:07.982Z,99922.78
2022-09-06T03:36:37.085Z,99893.59
2022-09-06T03:39:03.768Z,99882.69
2022-09-06T03:41:30.384Z,99918.31
2022-09-06T03:43:57.100Z,99900.06
2022-09-06T03:46:23.946Z,99863.81
2022-09-06T03:48:50.615Z,99913.44
2022-09-06T03:51:17.231Z,99878.50
2022-09-06T03:53:44.255Z,99885.59
2022-09-06T03:56:10.881Z,99896.69
2022-09-06T03:58:37.510Z,99909.41
2022-09-06T04:01:07.141Z,99913.84
2022-09-06T04:03:34.607Z,99915.13
2022-09-06T04:06:02.179Z,99906.56
2022-09-06T04:08:29.871Z,99910.19
2022-09-06T04:10:57.826Z,99891.59
2022-09-06T04:13:27.304Z,99882.25
2022-09-06T04:15:54.719Z,99886.13
2022-09-06T04:18:22.125Z,99903.09
2022-09-06T04:20:50.280Z,99906.69
2022-09-06T04:23:17.877Z,99871.03
2022-09-06T04:25:48.858Z,99882.03
2022-09-06T04:28:18.156Z,99879.34
2022-09-06T04:30:58.141Z,99874.00
2022-09-06T04:33:29.446Z,99881.91
2022-09-06T04:35:59.044Z,99877.59
2022-09-06T04:38:27.298Z,99893.63
2022-09-06T04:40:57.375Z,99871.88
2022-09-06T04:43:24.272Z,99855.47
2022-09-06T04:45:51.170Z,99863.66
2022-09-06T04:48:17.896Z,99886.19
2022-09-06T04:50:44.738Z,99896.09
2022-09-06T04:53:11.410Z,99861.31
2022-09-06T04:55:38.673Z,99892.97
2022-09-06T04:58:05.979Z,99908.91
2022-09-06T05:00:35.437Z,99905.34
2022-09-06T05:03:02.088Z,99897.81
2022-09-06T05:05:28.825Z,99913.03
2022-09-06T05:07:56.184Z,99942.31
2022-09-06T05:10:23.611Z,99937.84
2022-09-06T05:12:52.331Z,99944.25
2022-09-06T05:15:20.543Z,99918.13
2022-09-06T05:17:47.268Z,99907.28
2022-09-06T05:20:14.682Z,99943.88
2022-09-06T05:22:41.688Z,99912.03
2022-09-06T05:25:09.188Z,99955.53
2022-09-06T05:27:36.295Z,99949.28
2022-09-06T05:30:04.105Z,99934.53
2022-09-06T05:32:30.835Z,99961.03
2022-09-06T05:34:57.547Z,99961.19
2022-09-06T05:37:24.316Z,99953.81
2022-09-06T05:39:51.266Z,99965.97
2022-09-06T05:42:19.403Z,99921.91
2022-09-06T05:44:46.251Z,99922.72
2022-09-06T05:47:13.523Z,99939.31
2022-09-06T05:49:40.290Z,99935.03
2022-09-06T05:52:06.959Z,99953.53
2022-09-06T05:54:33.680Z,99971.06
2022-09-06T05:57:00.317Z,99938.63
2022-09-06T05:59:26.986Z,99951.81
2022-09-06T06:01:54.497Z,99967.94
2022-09-06T06:04:22.324Z,99936.75
2022-09-06T06:06:49.317Z,99966.47
2022-09-06T06:09:17.455Z,99906.53
2022-09-06T06:11:44.304Z,99926.97
2022-09-06T06:14:11.076Z,99950.00
2022-09-06T06:16:37.957Z,99961.69
2022-09-06T06:19:04.628Z,99956.25
2022-09-06T06:21:33.310Z,99969.44
2022-09-06T06:24:02.936Z,99912.94
2022-09-06T06:26:32.696Z,99968.16
2022-09-06T06:29:01.943Z,99953.31
2022-09-06T06:31:33.144Z,99973.41
2022-09-06T06:34:02.784Z,99979.09
2022-09-06T06:36:48.055Z,99976.41
2022-09-06T06:39:14.838Z,99922.84
2022-09-06T06:41:41.554Z,99972.31
2022-09-06T06:44:27.280Z,99964.63
2022-09-06T06:46:54.102Z,99951.09
2022-09-06T06:49:20.757Z,99957.72
2022-09-06T06:51:47.495Z,99972.19
2022-09-06T06:54:14.151Z,99955.22
2022-09-06T06:56:41.080Z,99962.78
2022-09-06T06:59:07.904Z,99977.16
2022-09-06T07:01:36.102Z,99950.56
2022-09-06T07:04:03.443Z,99958.75
2022-09-06T07:09:18.779Z,99945.25
2022-09-06T07:11:46.602Z,99970.06
2022-09-06T07:14:13.387Z,99927.03
2022-09-06T07:16:40.215Z,99946.06
2022-09-06T07:19:07.114Z,99946.16
2022-09-06T07:21:37.026Z,99917.78
2022-09-06T07:24:08.543Z,99948.66
2022-09-06T07:26:38.545Z,99948.47
2022-09-06T07:29:07.120Z,99943.19
2022-09-06T07:34:22.377Z,99945.69
2022-09-06T07:36:53.511Z,99947.44
2022-09-06T07:39:20.326Z,99940.47
2022-09-06T07:41:47.209Z,99917.31
2022-09-06T07:44:14.079Z,99956.03
2022-09-06T07:46:41.063Z,99944.66
2022-09-06T07:49:07.893Z,99956.69
2022-09-06T07:51:34.642Z,99935.47
2022-09-06T07:54:26.205Z,99929.88
2022-09-06T07:56:48.780Z,99922.50
2022-09-06T07:59:15.623Z,99932.63
2022-09-06T08:01:42.678Z,99928.88
2022-09-06T08:04:14.252Z,99930.28
2022-09-06T08:09:35.091Z,99933.34
2022-09-06T08:12:07.208Z,99924.88
2022-09-06T08:14:35.061Z,99930.91
2022-09-06T08:17:02.746Z,99924.75
2022-09-06T08:19:29.501Z,99934.81
2022-09-06T08:21:56.343Z,99936.25
2022-09-06T08:24:23.370Z,99916.91
2022-09-06T08:26:50.208Z,99934.25
2022-09-06T08:29:17.145Z,99933.53
2022-09-06T08:31:44.958Z,99943.47
2022-09-06T08:34:15.212Z,99905.91
2022-09-06T08:36:43.256Z,99933.03
2022-09-06T08:39:10.931Z,99940.44
2022-09-06T08:41:48.776Z,99935.63
2022-09-06T08:47:22.279Z,99929.69
2022-09-06T08:49:56.259Z,99929.13
2022-09-06T08:52:31.375Z,99923.47
2022-09-06T08:55:19.273Z,99927.41
2022-09-06T08:58:33.250Z,99922.25
2022-09-06T09:01:11.425Z,99918.06
2022-09-06T09:03:40.237Z,99931.38
2022-09-06T09:06:10.122Z,99925.19
2022-09-06T09:09:01.907Z,99925.50
2022-09-06T09:11:29.994Z,99893.91
2022-09-06T09:14:12.033Z,99912.41
2022-09-06T09:16:38.815Z,99913.06
2022-09-06T09:19:06.370Z,99915.56
2022-09-06T09:21:41.972Z,99912.69
2022-09-06T09:24:11.366Z,99915.53
2022-09-06T09:27:03.917Z,99918.94
2022-09-06T09:29:35.707Z,99896.84
2022-09-06T09:32:03.459Z,99905.78
2022-09-06T09:34:39.672Z,99898.94
2022-09-06T09:40:28.642Z,99904.41
2022-09-06T09:43:09.315Z,99892.69
2022-09-06T09:45:36.013Z,99893.25
2022-09-06T09:48:28.712Z,99871.13
2022-09-06T09:50:56.099Z,99886.28
2022-09-06T09:53:23.985Z,99877.31
2022-09-06T09:55:58.928Z,99882.53
2022-09-06T09:58:33.242Z,99891.22
2022-09-06T10:01:10.937Z,99887.00
2022-09-06T10:09:21.486Z,99893.34
2022-09-06T10:11:49.873Z,99886.09
2022-09-06T10:14:41.073Z,99875.88
2022-09-06T10:17:08.132Z,99874.31
2022-09-06T10:19:43.220Z,99869.13
2022-09-06T10:22:26.192Z,99862.69
2022-09-06T10:24:58.884Z,99858.34
2022-09-06T10:27:28.858Z,99853.38
2022-09-06T10:29:56.020Z,99860.59
2022-09-06T10:32:31.108Z,99860.59
2022-09-06T10:35:16.095Z,99852.03
2022-09-06T10:37:53.598Z,99847.16
2022-09-06T10:40:34.066Z,99835.34
2022-09-06T10:43:03.215Z,99847.69
2022-09-06T10:45:58.878Z,99841.44
2022-09-06T10:48:33.469Z,99847.09
2022-09-06T10:51:03.036Z,99844.53
2022-09-06T10:53:56.812Z,99818.88
2022-09-06T10:56:33.540Z,99844.31
2022-09-06T11:02:20.944Z,99827.09
2022-09-06T11:10:40.266Z,99832.31
2022-09-06T11:13:16.289Z,99832.03
2022-09-06T11:15:52.953Z,99826.25
2022-09-06T11:18:28.721Z,99829.81
2022-09-06T11:21:26.718Z,99821.88
2022-09-06T11:24:10.501Z,99821.94
2022-09-06T11:27:06.642Z,99826.56
2022-09-06T11:29:35.540Z,99816.56
2022-09-06T11:32:20.268Z,99820.66
2022-09-06T11:34:56.126Z,99817.84
2022-09-06T11:37:31.032Z,99819.00
2022-09-06T11:40:27.804Z,99758.59
2022-09-06T11:42:55.352Z,99813.16
2022-09-06T11:45:46.036Z,99753.41
2022-09-06T11:48:34.160Z,99798.69
2022-09-06T11:51:11.191Z,99801.91
2022-09-06T11:53:50.156Z,99796.63
2022-09-06T11:56:31.451Z,99798.53
2022-09-06T11:59:06.523Z,99803.72
2022-09-06T12:01:36.298Z,99795.31
2022-09-06T12:04:06.958Z,99778.06
2022-09-06T12:06:43.727Z,99779.38
2022-09-06T12:09:30.280Z,99786.44
2022-09-06T12:11:58.736Z,99789.69
2022-09-06T12:14:39.574Z,99788.72
2022-09-06T12:17:07.216Z,99775.78
2022-09-06T12:20:08.325Z,99767.91
2022-09-06T12:22:37.659Z,99768.13
2022-09-06T12:25:16.200Z,99761.66
2022-09-06T12:28:02.369Z,99749.53
2022-09-06T12:30:37.365Z,99754.97
2022-09-06T12:33:13.547Z,99740.28
2022-09-06T12:38:25.214Z,99739.22
2022-09-06T12:40:58.179Z,99736.22
2022-09-06T12:43:25.861Z,99741.81
2022-09-06T12:45:52.989Z,99738.44
2022-09-06T12:48:30.610Z,99736.13
2022-09-06T12:51:06.495Z,99721.81
2022-09-06T12:53:34.818Z,99720.25
2022-09-06T12:56:12.639Z,99727.97
2022-09-06T12:58:39.898Z,99715.16
2022-09-06T13:01:16.828Z,99701.44
2022-09-06T13:03:57.659Z,99670.38
2022-09-06T13:06:27.364Z,99693.59
2022-09-06T13:08:58.789Z,99708.81
2022-09-06T13:11:38.975Z,99701.69
2022-09-06T13:14:18.371Z,99714.09
2022-09-06T13:16:48.394Z,99695.94
2022-09-06T13:19:21.973Z,99699.28
2022-09-06T13:21:50.618Z,99675.63
2022-09-06T13:24:26.743Z,99689.28
2022-09-06T13:26:54.515Z,99694.38
2022-09-06T13:29:25.241Z,99695.78
2022-09-06T13:31:53.870Z,99692.25
2022-09-06T13:34:27.204Z,99691.44
2022-09-06T13:37:00.332Z,99688.63
2022-09-06T13:39:35.908Z,99687.09
2022-09-06T13:42:07.897Z,99689.66
2022-09-06T13:44:36.477Z,99663.25
2022-09-06T13:47:04.145Z,99675.75
2022-09-06T13:49:32.829Z,99670.63
2022-09-06T13:52:02.163Z,99660.28
2022-09-06T13:54:30.681Z,99667.25
2022-09-06T13:56:57.852Z,99646.19
2022-09-06T13:59:25.216Z,99660.63
2022-09-06T14:02:15.983Z,99640.44
2022-09-06T14:04:43.002Z,99652.25
2022-09-06T14:07:09.716Z,99659.13
2022-09-06T14:09:37.501Z,99652.03
2022-09-06T14:12:06.870Z,99652.09
2022-09-06T14:14:34.249Z,99647.53
2022-09-06T14:17:01.474Z,99641.47
2022-09-06T14:19:28.828Z,99637.94
2022-09-06T14:21:55.669Z,99638.78
2022-09-06T14:24:22.603Z,99642.50
2022-09-06T14:26:49.381Z,99641.94
2022-09-06T14:29:16.296Z,99641.38
2022-09-06T14:31:43.016Z,99632.38
2022-09-06T14:34:09.772Z,99617.00
2022-09-06T14:36:36.591Z,99626.84
2022-09-06T14:39:04.292Z,99628.19
2022-09-06T14:41:31.575Z,99632.97
2022-09-06T14:43:59.062Z,99621.53
2022-09-06T14:46:27.286Z,99616.25
2022-09-06T14:49:07.198Z,99621.63
2022-09-06T14:51:35.032Z,99630.19
2022-09-06T14:54:04.826Z,99627.97
2022-09-06T14:56:31.879Z,99636.63
2022-09-06T14:58:59.940Z,99624.59
2022-09-06T15:01:37.346Z,99591.56
2022-09-06T15:04:06.937Z,99642.44
2022-09-06T15:06:34.726Z,99643.03
2022-09-06T15:09:01.641Z,99620.38
2022-09-06T15:11:39.317Z,99631.09
2022-09-06T15:14:08.980Z,99631.69
2022-09-06T15:16:36.252Z,99629.88
2022-09-06T15:19:03.521Z,99586.78
2022-09-06T15:21:31.193Z,99602.91
2022-09-06T15:23:58.757Z,99604.72
2022-09-06T15:26:25.840Z,99609.41
2022-09-06T15:28:52.933Z,99603.34
2022-09-06T15:31:20.168Z,99615.25
2022-09-06T15:33:48.889Z,99609.78
2022-09-06T15:36:17.143Z,99622.84
2022-09-06T15:38:45.193Z,99611.59
2022-09-06T15:41:15.186Z,99598.47
2022-09-06T15:43:48.082Z,99607.97
2022-09-06T15:46:16.918Z,99602.34
2022-09-06T15:48:53.619Z,99595.50
2022-09-06T15:51:21.319Z,99589.38
2022-09-06T15:53:48.267Z,99596.13
2022-09-06T15:56:16.971Z,99590.06
2022-09-06T15:58:47.784Z,99588.59
2022-09-06T16:01:20.270Z,99591.97
2022-09-06T16:03:49.239Z,99596.22
2022-09-06T16:06:27.253Z,99596.34
2022-09-06T16:09:05.285Z,99573.13
2022-09-06T16:11:33.650Z,99578.69
2022-09-06T16:14:00.506Z,99588.88
2022-09-06T16:16:28.497Z,99592.94
2022-09-06T16:18:55.361Z,99586.47
2022-09-06T16:21:25.174Z,99587.38
2022-09-06T16:23:54.890Z,99585.28
2022-09-06T16:26:23.961Z,99589.16
2022-09-06T16:28:51.907Z,99574.75
2022-09-06T16:31:20.584Z,99572.63
2022-09-06T16:33:48.797Z,99581.69
2022-09-06T16:36:16.764Z,99572.84
2022-09-06T16:38:43.701Z,99548.50
2022-09-06T16:41:14.568Z,99584.00
2022-09-06T16:43:42.300Z,99582.06
2022-09-06T16:46:09.553Z,99582.25
2022-09-06T16:48:36.967Z,99561.94
2022-09-06T16:51:16.423Z,99578.41
2022-09-06T16:53:45.798Z,99573.56
2022-09-06T16:56:15.578Z,99564.63
2022-09-06T16:58:43.770Z,99558.50
2022-09-06T17:01:10.786Z,99570.59
2022-09-06T17:03:38.496Z,99576.81
2022-09-06T17:06:06.774Z,99572.47
2022-09-06T17:08:36.341Z,99573.66
2022-09-06T17:11:13.347Z,99581.75
2022-09-06T17:13:41.049Z,99586.47
2022-09-06T17:16:30.021Z,99556.88
2022-09-06T17:18:59.079Z,99579.69
2022-09-06T17:21:26.121Z,99583.31
2022-09-06T17:23:53.292Z,99574.69
2022-09-06T17:26:22.157Z,99542.41
2022-09-06T17:28:49.821Z,99582.03
2022-09-06T17:31:22.266Z,99550.66
2022-09-06T17:33:52.243Z,99518.88
2022-09-06T17:36:23.612Z,99541.03
2022-09-06T17:38:53.655Z,99567.06
2022-09-06T17:41:24.351Z,99546.22
2022-09-06T17:43:53.746Z,99544.75
2022-09-06T17:46:28.702Z,99568.06
2022-09-06T17:48:56.857Z,99561.50
2022-09-06T17:51:25.023Z,99541.31
2022-09-06T17:53:52.976Z,99558.81
2022-09-06T17:56:20.680Z,99544.66
2022-09-06T17:58:55.316Z,99576.81
2022-09-06T18:01:24.226Z,99573.00
2022-09-06T18:03:51.614Z,99571.41
2022-09-06T18:06:22.712Z,99571.47
2022-09-06T18:08:52.071Z,99568.91
2022-09-06T18:11:22.327Z,99576.03
2022-09-06T18:14:16.005Z,99578.03
2022-09-06T18:16:45.365Z,99574.81
2022-09-06T18:19:12.581Z,99550.69
2022-09-06T18:21:41.032Z,99542.47
2022-09-06T18:24:09.871Z,99565.88
2022-09-06T18:26:37.746Z,99527.66
2022-09-06T18:29:08.363Z,99564.31
2022-09-06T18:31:35.679Z,99566.59
2022-09-06T18:34:04.325Z,99569.91
2022-09-06T18:36:32.579Z,99587.41
2022-09-06T18:39:04.170Z,99586.34
2022-09-06T18:41:50.711Z,99585.97
2022-09-06T18:44:17.892Z,99585.91
2022-09-06T18:46:45.075Z,99566.84
2022-09-06T18:49:14.200Z,99592.00
2022-09-06T18:51:41.683Z,99575.88
2022-09-06T18:54:09.827Z,99582.72
2022-09-06T18:56:36.687Z,99600.25
2022-09-06T18:59:05.193Z,99568.72
2022-09-06T19:01:33.311Z,99592.81
2022-09-06T19:04:01.065Z,99575.53
2022-09-06T19:06:29.980Z,99592.88
2022-09-06T19:09:01.920Z,99576.97
2022-09-06T19:11:29.107Z,99593.44
2022-09-06T19:13:57.398Z,99602.69
2022-09-06T19:16:25.934Z,99596.19
2022-09-06T19:18:56.884Z,99591.88
2022-09-06T19:21:25.571Z,99551.59
2022-09-06T19:24:00.932Z,99590.00
2022-09-06T19:26:31.250Z,99584.59
2022-09-06T19:29:00.776Z,99585.97
2022-09-06T19:31:30.460Z,99584.88
2022-09-06T19:33:57.940Z,99530.78
2022-09-06T19:36:26.714Z,99580.81
2022-09-06T19:39:06.353Z,99588.38
2022-09-06T19:41:38.589Z,99535.63
2022-09-06T19:44:08.673Z,99509.91
2022-09-06T19:46:37.177Z,99581.03
2022-09-06T19:49:05.316Z,99583.41
2022-09-06T19:51:33.092Z,99544.78
2022-09-06T19:54:00.420Z,99576.63
2022-09-06T19:56:34.185Z,99582.84
2022-09-06T19:59:03.506Z,99574.19
2022-09-06T20:01:32.661Z,99573.88
2022-09-06T20:04:02.437Z,99574.38
2022-09-06T20:06:30.470Z,99537.28
2022-09-06T20:08:59.031Z,99570.56
2022-09-06T20:11:28.521Z,99525.66
2022-09-06T20:13:55.985Z,99561.38
2022-09-06T20:16:24.855Z,99525.09
2022-09-06T20:18:53.877Z,99551.63
2022-09-06T20:21:21.067Z,99556.72
2022-09-06T20:23:52.624Z,99555.81
2022-09-06T20:26:23.639Z,99544.94
2022-09-06T20:29:01.799Z,99543.56
2022-09-06T20:31:30.341Z,99547.06
2022-09-06T20:33:59.499Z,99505.41
2022-09-06T20:36:26.668Z,99535.72
2022-09-06T20:38:53.474Z,99552.47
2022-09-06T20:41:23.650Z,99534.03
2022-09-06T20:43:52.619Z,99560.44
2022-09-06T20:46:21.462Z,99564.38
2022-09-06T20:48:48.594Z,99532.38
2022-09-06T20:51:19.209Z,99541.44
2022-09-06T20:53:48.632Z,99574.94
2022-09-06T20:56:17.859Z,99574.06
2022-09-06T20:58:55.850Z,99546.97
2022-09-06T21:01:25.183Z,99581.38
2022-09-06T21:03:54.549Z,99564.09
2022-09-06T21:06:22.699Z,99570.94
2022-09-06T21:08:49.986Z,99528.13
2022-09-06T21:11:17.499Z,99560.31
2022-09-06T21:13:47.674Z,99558.94
2022-09-06T21:16:14.557Z,99585.06
2022-09-06T21:18:41.304Z,99564.50
2022-09-06T21:21:08.627Z,99567.16
2022-09-06T21:23:37.226Z,99573.63
2022-09-06T21:26:10.423Z,99566.19
2022-09-06T21:28:39.733Z,99540.84
2022-09-06T21:31:09.112Z,99575.03
2022-09-06T21:33:37.460Z,99567.97
2022-09-06T21:36:09.087Z,99568.81
2022-09-06T21:38:40.831Z,99567.31
2022-09-06T21:41:09.081Z,99554.97
2022-09-06T21:43:36.110Z,99553.66
2022-09-06T21:46:08.029Z,99520.34
2022-09-06T21:48:39.237Z,99564.31
2022-09-06T21:51:10.603Z,99569.16
2022-09-06T21:53:37.565Z,99567.41
2022-09-06T21:56:05.508Z,99567.41
2022-09-06T21:58:32.765Z,99526.44
2022-09-06T22:01:01.273Z,99567.59
2022-09-06T22:03:30.416Z,99566.47
2022-09-06T22:05:57.391Z,99578.31
2022-09-06T22:08:24.833Z,99573.09
2022-09-06T22:10:52.252Z,99591.44
2022-09-06T22:13:20.572Z,99592.13
2022-09-06T22:15:47.585Z,99587.50
2022-09-06T22:18:14.332Z,99598.25
2022-09-06T22:20:41.097Z,99564.50
2022-09-06T22:23:09.843Z,99585.50
2022-09-06T22:25:36.705Z,99598.09
2022-09-06T22:28:03.555Z,99594.16
2022-09-06T22:30:30.814Z,99591.81
2022-09-06T22:32:57.728Z,99583.56
2022-09-06T22:35:24.444Z,99540.94
2022-09-06T22:37:51.144Z,99542.00
2022-09-06T22:40:17.843Z,99562.81
2022-09-06T22:42:44.549Z,99547.38
2022-09-06T22:45:29.497Z,99569.06
2022-09-06T22:47:56.196Z,99571.81
2022-09-06T22:50:23.002Z,99571.81
2022-09-06T22:52:49.693Z,99587.19
2022-09-06T22:55:16.566Z,99582.00
2022-09-06T22:57:43.367Z,99585.16
2022-09-06T23:00:10.890Z,99549.00
2022-09-06T23:02:37.561Z,99570.53
2022-09-06T23:05:04.506Z,99562.22
2022-09-06T23:07:31.156Z,99559.19
2022-09-06T23:09:57.929Z,99570.53
2022-09-06T23:12:24.624Z,99542.94
2022-09-06T23:14:51.290Z,99531.38
2022-09-06T23:17:18.010Z,99566.53
2022-09-06T23:19:44.700Z,99576.47
2022-09-06T23:22:11.733Z,99504.38
2022-09-06T23:24:39.496Z,99550.56
2022-09-06T23:27:06.241Z,99555.44
2022-09-06T23:29:34.367Z,99557.94
2022-09-06T23:32:01.123Z,99555.53
2022-09-06T23:34:27.968Z,99525.81
2022-09-06T23:36:59.889Z,99520.13
2022-09-06T23:39:27.983Z,99534.38
2022-09-06T23:41:55.535Z,99505.69
2022-09-06T23:44:22.643Z,99508.31
2022-09-06T23:46:49.476Z,99530.88
2022-09-06T23:49:16.171Z,99544.97
2022-09-06T23:51:43.538Z,99544.00
2022-09-06T23:54:10.687Z,99542.72
2022-09-06T23:56:37.355Z,99555.34
2022-09-06T23:59:04.056Z,99527.41
